Time;durP1;ratioP1;P1;durP2;ratioP2;P2;SDS_P1;SDS_P2;PMS_P1;PMS_P2;Temp;Humidity;BMP_temperature;BMP_pressure;BME280_temperature;BME280_humidity;BME280_pressure;Samples;Min_cycle;Max_cycle;Signal;HPM_P1;HPM_P2
2022/10/21 00:01:37;;;;;;;42.47;26.90;;;;;;;4.45;86.08;98610.25;10455804;28;20035;-54
2022/10/21 00:06:36;;;;;;;40.45;26.40;;;;;;;4.32;86.38;98602.94;10455613;28;20032;-55
2022/10/21 00:11:35;;;;;;;40.28;26.90;;;;;;;4.34;86.61;98608.09;10455246;28;20085;-55
2022/10/21 00:16:34;;;;;;;45.22;28.02;;;;;;;4.33;86.61;98612.38;10455206;28;20038;-55
2022/10/21 00:21:35;;;;;;;42.85;27.27;;;;;;;4.28;86.56;98601.06;10454806;28;20048;-55
2022/10/21 00:26:34;;;;;;;38.58;25.63;;;;;;;4.27;86.70;98615.59;10455016;28;20067;-55
2022/10/21 00:31:33;;;;;;;38.50;25.50;;;;;;;4.23;86.78;98593.19;10455540;28;20020;-54
2022/10/21 00:36:32;;;;;;;37.05;25.27;;;;;;;4.30;86.72;98604.56;10454585;28;20104;-55
2022/10/21 00:41:31;;;;;;;42.10;25.70;;;;;;;4.19;87.05;98599.00;10454923;28;20705;-54
2022/10/21 00:46:42;;;;;;;38.22;25.33;;;;;;;4.15;87.55;98596.25;10458509;28;20361;-55
2022/10/21 00:51:46;;;;;;;41.08;26.70;;;;;;;4.09;87.76;98594.34;10462308;28;20072;-55
2022/10/21 00:56:47;;;;;;;42.10;25.70;;;;;;;4.07;88.16;98601.13;10462069;28;20468;-55
2022/10/21 01:01:47;;;;;;;36.63;25.73;;;;;;;4.00;88.25;98594.00;10461218;28;20063;-55
2022/10/21 01:06:46;;;;;;;36.92;23.38;;;;;;;3.98;88.25;98581.09;10461667;28;20505;-55
2022/10/21 01:11:47;;;;;;;43.35;27.40;;;;;;;3.85;87.56;98589.16;10461414;28;20052;-55
2022/10/21 01:16:52;;;;;;;44.80;27.80;;;;;;;3.70;87.49;98583.41;10460926;28;20535;-55
2022/10/21 01:22:07;;;;;;;35.85;23.15;;;;;;;3.50;87.18;98586.06;10460818;28;20074;-55
2022/10/21 01:27:20;;;;;;;36.63;22.98;;;;;;;3.39;87.13;98585.63;10460699;28;20526;-55
2022/10/21 01:32:37;;;;;;;34.53;23.13;;;;;;;3.21;87.06;98582.31;10460608;28;20157;-55
2022/10/21 01:37:42;;;;;;;37.15;24.17;;;;;;;3.17;87.28;98581.31;10458700;28;20067;-55
2022/10/21 01:42:59;;;;;;;42.35;24.42;;;;;;;3.14;87.45;98575.16;10459574;28;20509;-55
2022/10/21 01:48:06;;;;;;;41.83;25.92;;;;;;;2.98;87.70;98579.69;10459641;28;20084;-55
2022/10/21 01:53:09;;;;;;;42.03;26.75;;;;;;;2.97;87.98;98583.03;10459590;28;20062;-55
2022/10/21 01:58:18;;;;;;;36.88;24.10;;;;;;;2.95;88.51;98589.78;10459535;28;20055;-55
2022/10/21 02:03:23;;;;;;;40.03;24.02;;;;;;;2.88;88.37;98585.22;10459365;28;20068;-55
2022/10/21 02:08:22;;;;;;;36.83;22.95;;;;;;;2.91;88.24;98597.28;10459008;28;20541;-55
2022/10/21 02:13:40;;;;;;;44.55;27.65;;;;;;;2.91;87.91;98597.28;10459030;28;20090;-55
2022/10/21 02:18:39;;;;;;;36.85;25.35;;;;;;;2.84;88.46;98595.25;10458427;28;20363;-54
2022/10/21 02:23:58;;;;;;;43.85;25.98;;;;;;;2.76;88.13;98597.50;10458385;28;20056;-55
2022/10/21 02:28:59;;;;;;;48.72;27.75;;;;;;;2.75;88.54;98600.91;10458334;28;20071;-55
2022/10/21 02:34:09;;;;;;;42.00;26.38;;;;;;;2.70;88.47;98602.34;10458137;28;20064;-54
2022/10/21 02:39:18;;;;;;;46.10;28.15;;;;;;;2.71;88.59;98614.38;10458280;28;20490;-55
2022/10/21 02:44:17;;;;;;;54.05;30.50;;;;;;;2.76;88.39;98612.88;10457548;28;20060;-54
2022/10/21 02:49:16;;;;;;;56.80;30.08;;;;;;;2.75;88.38;98611.16;10457582;28;20077;-55
2022/10/21 02:54:15;;;;;;;51.85;31.30;;;;;;;2.75;88.61;98611.16;10457174;28;20035;-54
2022/10/21 02:59:14;;;;;;;44.53;29.20;;;;;;;2.69;88.60;98614.28;10457181;28;20459;-54
2022/10/21 03:04:13;;;;;;;47.83;27.15;;;;;;;2.65;88.68;98604.72;10456616;28;20091;-55
2022/10/21 03:09:11;;;;;;;47.83;29.52;;;;;;;2.63;89.13;98608.91;10454648;28;20032;-54
2022/10/21 03:14:10;;;;;;;44.75;27.77;;;;;;;2.61;88.81;98605.41;10457088;28;20032;-55
2022/10/21 03:19:10;;;;;;;42.70;26.77;;;;;;;2.61;89.13;98607.09;10456425;28;20429;-54
2022/10/21 03:24:09;;;;;;;44.28;25.42;;;;;;;2.56;88.90;98614.59;10456211;28;20541;-55
2022/10/21 03:29:08;;;;;;;36.55;23.25;;;;;;;2.45;89.60;98613.22;10456055;28;20012;-54
2022/10/21 03:34:06;;;;;;;48.67;26.10;;;;;;;2.40;89.76;98613.03;10456362;28;20059;-53
2022/10/21 03:39:05;;;;;;;40.13;24.23;;;;;;;2.41;89.60;98622.44;10456333;28;20028;-55
2022/10/21 03:44:04;;;;;;;44.97;28.20;;;;;;;2.46;90.06;98628.66;10456470;28;20054;-54
2022/10/21 03:49:03;;;;;;;62.88;35.92;;;;;;;2.49;89.62;98621.13;10455738;28;20415;-54
2022/10/21 03:54:02;;;;;;;57.35;35.97;;;;;;;2.51;89.87;98622.06;10455804;28;20027;-54
2022/10/21 03:59:01;;;;;;;57.85;36.28;;;;;;;2.42;89.70;98611.41;10455846;28;20028;-54
2022/10/21 04:04:00;;;;;;;55.40;29.33;;;;;;;2.47;89.88;98609.06;10456109;28;20035;-55
2022/10/21 04:08:59;;;;;;;48.53;29.40;;;;;;;2.32;90.00;98617.78;10455073;28;20529;-54
2022/10/21 04:13:58;;;;;;;49.80;30.80;;;;;;;2.05;89.54;98619.97;10455369;28;20501;-54
2022/10/21 04:18:57;;;;;;;48.20;27.50;;;;;;;1.92;89.35;98617.63;10455309;28;20115;-54
2022/10/21 04:23:56;;;;;;;45.47;28.83;;;;;;;1.85;89.29;98619.03;10463091;28;20028;-54
2022/10/21 04:28:55;;;;;;;48.63;28.60;;;;;;;1.79;89.15;98623.00;10462985;28;20098;-54
2022/10/21 04:33:54;;;;;;;47.95;28.20;;;;;;;1.68;89.00;98615.66;10420654;28;20052;-54
2022/10/21 04:38:53;;;;;;;44.78;26.17;;;;;;;1.69;89.21;98625.13;10419016;28;20091;-54
2022/10/21 04:43:52;;;;;;;45.92;26.15;;;;;;;1.66;89.35;98622.38;10419338;28;20411;-54
2022/10/21 04:48:51;;;;;;;47.50;27.52;;;;;;;1.64;89.57;98618.00;10412801;28;20056;-54
2022/10/21 04:53:50;;;;;;;52.72;29.23;;;;;;;1.67;89.74;98620.69;10418614;28;20036;-54
2022/10/21 04:58:49;;;;;;;50.50;29.42;;;;;;;1.54;90.00;98619.25;10419173;28;20472;-54
2022/10/21 05:03:48;;;;;;;54.67;31.00;;;;;;;1.58;90.42;98621.16;10416462;28;20036;-54
2022/10/21 05:08:47;;;;;;;50.58;30.48;;;;;;;1.63;90.09;98619.69;10417551;28;20039;-54
2022/10/21 05:13:46;;;;;;;65.40;37.33;;;;;;;1.72;90.42;98630.38;10417710;28;20131;-54
2022/10/21 05:18:45;;;;;;;70.47;38.88;;;;;;;1.84;90.19;98626.66;10419186;28;20491;-54
2022/10/21 05:23:44;;;;;;;70.60;41.50;;;;;;;1.91;90.42;98626.13;10419282;28;20025;-54
2022/10/21 05:28:43;;;;;;;74.30;43.35;;;;;;;2.07;90.40;98627.72;10412098;28;20033;-54
2022/10/21 05:33:42;;;;;;;79.13;46.17;;;;;;;2.08;90.70;98638.03;10410861;28;20037;-54
2022/10/21 05:38:41;;;;;;;70.00;39.30;;;;;;;2.17;90.98;98643.56;10419068;28;20024;-54
2022/10/21 05:43:40;;;;;;;83.50;49.58;;;;;;;2.25;90.55;98643.91;10418685;28;20082;-55
2022/10/21 05:48:38;;;;;;;86.18;47.42;;;;;;;2.41;90.11;98652.31;10415313;28;20044;-54
2022/10/21 05:53:38;;;;;;;95.30;53.15;;;;;;;2.52;90.37;98649.44;10415153;28;20607;-55
2022/10/21 05:58:37;;;;;;;97.53;57.70;;;;;;;2.57;90.14;98660.75;10415148;28;20064;-55
2022/10/21 06:03:36;;;;;;;100.00;54.55;;;;;;;2.55;89.56;98664.94;10417415;28;20044;-55
2022/10/21 06:08:40;;;;;;;97.32;55.58;;;;;;;2.65;90.14;98666.22;10417826;28;20036;-55
2022/10/21 06:13:39;;;;;;;65.07;41.28;;;;;;;2.85;89.38;98663.69;10415659;28;20064;-54
2022/10/21 06:18:39;;;;;;;65.30;39.80;;;;;;;3.01;88.92;98666.09;10418015;28;20056;-55
2022/10/21 06:23:38;;;;;;;65.88;44.33;;;;;;;3.04;89.57;98655.97;10417487;28;20071;-55
2022/10/21 06:28:39;;;;;;;70.18;46.17;;;;;;;3.26;89.09;98673.16;10417189;28;20033;-55
2022/10/21 06:33:38;;;;;;;72.50;46.03;;;;;;;3.42;89.23;98667.88;10415421;28;20056;-55
2022/10/21 06:38:37;;;;;;;76.28;47.00;;;;;;;3.49;89.27;98676.69;10416498;28;20055;-55
2022/10/21 06:43:36;;;;;;;64.93;40.90;;;;;;;3.52;90.66;98658.88;10415457;28;20067;-54
2022/10/21 06:48:35;;;;;;;52.22;38.88;;;;;;;3.74;90.70;98662.31;10415920;28;20084;-55
2022/10/21 06:53:35;;;;;;;60.47;38.55;;;;;;;4.04;91.08;98667.78;10392627;28;20036;-55
2022/10/21 06:58:35;;;;;;;45.20;31.17;;;;;;;4.11;92.49;98674.91;10415573;28;20060;-55
2022/10/21 07:03:35;;;;;;;41.88;30.75;;;;;;;4.39;92.59;98669.16;10415530;28;20060;-55
2022/10/21 07:08:34;;;;;;;39.50;26.73;;;;;;;4.66;92.27;98653.88;10415466;28;20063;-55
2022/10/21 07:13:36;;;;;;;45.97;30.13;;;;;;;4.89;92.36;98652.13;10415242;28;20474;-55
2022/10/21 07:18:35;;;;;;;48.17;32.28;;;;;;;5.09;92.34;98650.31;10413826;28;20060;-55
2022/10/21 07:23:34;;;;;;;49.47;34.80;;;;;;;5.43;91.70;98648.88;10414623;28;20033;-55
2022/10/21 07:28:34;;;;;;;46.00;33.47;;;;;;;5.72;91.25;98646.41;10415467;28;20075;-54
2022/10/21 07:33:34;;;;;;;43.08;30.10;;;;;;;6.01;90.84;98643.88;10415255;28;20067;-55
2022/10/21 07:38:33;;;;;;;41.45;30.20;;;;;;;6.34;89.83;98649.19;10415176;28;20491;-55
2022/10/21 07:43:32;;;;;;;44.28;29.45;;;;;;;6.67;88.25;98628.69;10418207;28;20071;-55
2022/10/21 07:48:31;;;;;;;45.15;31.83;;;;;;;7.05;88.42;98631.44;10376752;28;20080;-55
2022/10/21 07:53:30;;;;;;;49.00;34.17;;;;;;;7.33;87.21;98627.88;10386114;28;20029;-55
2022/10/21 07:58:29;;;;;;;51.78;38.95;;;;;;;7.62;87.24;98625.22;10419119;28;20020;-55
2022/10/21 08:03:28;;;;;;;;;;;;;;;7.93;85.07;98611.31;10426465;28;20055;-55
2022/10/21 08:08:28;;;;;;;31.55;22.90;;;;;;;8.23;83.41;98603.38;10425704;28;20374;-55
2022/10/21 08:13:27;;;;;;;32.88;23.17;;;;;;;8.66;82.69;98600.81;10425709;28;20068;-55
2022/10/21 08:18:26;;;;;;;32.72;22.25;;;;;;;9.03;81.66;98601.53;10425635;28;20040;-55
2022/10/21 08:23:25;;;;;;;31.85;19.33;;;;;;;9.33;79.43;98596.94;10425387;28;20060;-54
2022/10/21 08:28:26;;;;;;;27.63;18.60;;;;;;;9.65;77.86;98587.94;10425199;28;20043;-55
2022/10/21 08:33:25;;;;;;;25.38;17.85;;;;;;;10.09;76.01;98592.94;10424843;28;20028;-55
2022/10/21 08:38:24;;;;;;;22.42;16.35;;;;;;;10.33;74.85;98569.94;10422866;28;20033;-55
2022/10/21 08:43:26;;;;;;;25.23;18.98;;;;;;;10.70;73.88;98577.31;10420866;28;20042;-55
2022/10/21 08:48:32;;;;;;;25.38;15.98;;;;;;;11.08;72.56;98566.47;10420181;28;20412;-55
2022/10/21 08:53:37;;;;;;;18.90;14.40;;;;;;;11.44;70.15;98563.38;10420860;28;20060;-55
2022/10/21 08:58:36;;;;;;;19.17;14.75;;;;;;;11.81;69.45;98556.72;10420783;28;20063;-55
2022/10/21 09:03:44;;;;;;;18.25;12.52;;;;;;;12.19;66.49;98545.69;10420602;28;20063;-55
2022/10/21 09:09:07;;;;;;;16.40;12.85;;;;;;;12.51;64.34;98545.00;10418881;28;20071;-55
2022/10/21 09:14:37;;;;;;;15.00;11.05;;;;;;;12.81;61.83;98538.13;10420098;28;20059;-55
2022/10/21 09:19:56;;;;;;;14.63;10.57;;;;;;;13.20;61.08;98536.47;10419471;28;20076;-55
2022/10/21 09:25:14;;;;;;;14.88;10.45;;;;;;;13.51;58.70;98535.59;10419652;28;20458;-55
2022/10/21 09:30:20;;;;;;;17.10;11.20;;;;;;;13.86;58.11;98529.53;10419574;28;20056;-56
2022/10/21 09:35:42;;;;;;;22.88;10.20;;;;;;;14.18;55.78;98521.63;10418492;28;20067;-56
2022/10/21 09:40:43;;;;;;;15.77;9.88;;;;;;;14.48;53.54;98509.31;10419997;28;20490;-55
2022/10/21 09:45:45;;;;;;;13.70;9.80;;;;;;;14.68;52.80;98497.91;10396718;28;20542;-55
2022/10/21 09:50:57;;;;;;;14.82;10.13;;;;;;;14.95;51.62;98494.28;10391584;28;20072;-55
2022/10/21 09:56:03;;;;;;;18.50;11.15;;;;;;;15.09;50.73;98470.69;10418191;28;20462;-55
2022/10/21 10:01:04;;;;;;;15.50;10.15;;;;;;;15.28;50.65;98476.63;10417449;28;20052;-56
2022/10/21 10:06:04;;;;;;;12.63;8.70;;;;;;;15.41;48.84;98481.75;10417333;28;20463;-55
2022/10/21 10:11:13;;;;;;;11.57;8.65;;;;;;;15.59;48.16;98474.59;10418090;28;20056;-55
2022/10/21 10:16:21;;;;;;;15.37;9.23;;;;;;;15.79;47.78;98477.06;10417774;28;20056;-56
2022/10/21 10:21:21;;;;;;;12.80;8.90;;;;;;;15.87;45.76;98473.44;10416467;28;20060;-56
2022/10/21 10:26:41;;;;;;;13.70;8.60;;;;;;;15.99;45.67;98461.13;10417040;28;20577;-56
2022/10/21 10:31:46;;;;;;;12.30;8.30;;;;;;;16.14;45.30;98454.81;10416773;28;20695;-56
2022/10/21 10:36:48;;;;;;;12.82;8.10;;;;;;;16.27;44.94;98452.03;10416973;28;20075;-56
2022/10/21 10:41:50;;;;;;;9.85;7.55;;;;;;;16.40;44.41;98444.91;10416531;28;20056;-56
2022/10/21 10:46:54;;;;;;;13.25;9.13;;;;;;;16.41;44.26;98449.25;10416208;28;20801;-56
2022/10/21 10:52:03;;;;;;;12.15;8.88;;;;;;;16.52;44.41;98442.09;10413892;28;20068;-56
2022/10/21 10:57:19;;;;;;;12.83;8.10;;;;;;;16.74;44.55;98436.56;10411687;28;20063;-55
2022/10/21 11:02:35;;;;;;;10.45;8.00;;;;;;;16.65;42.68;98421.84;10375826;28;20079;-56
2022/10/21 11:07:49;;;;;;;11.43;8.52;;;;;;;16.58;42.93;98424.56;10404853;28;20063;-56
2022/10/21 11:12:48;;;;;;;10.35;7.90;;;;;;;16.61;42.00;98411.44;10416945;28;20459;-56
2022/10/21 11:18:10;;;;;;;;;;;;;;;16.67;42.29;98403.47;10416682;28;20521;-56
2022/10/21 11:23:09;;;;;;;12.98;8.73;;;;;;;16.65;43.24;98400.00;10414518;28;19966;-56
2022/10/21 11:28:11;;;;;;;;;;;;;;;16.81;42.43;98398.91;10414396;28;20029;-56
2022/10/21 11:33:25;;;;;;;12.00;8.10;;;;;;;16.80;41.70;98404.16;10415734;28;20026;-56
2022/10/21 11:38:46;;;;;;;12.35;7.97;;;;;;;16.97;41.28;98385.56;10415685;28;20071;-56
2022/10/21 11:43:47;;;;;;;12.13;8.05;;;;;;;17.14;40.08;98379.16;10414944;28;20071;-56
2022/10/21 11:49:11;;;;;;;11.30;8.15;;;;;;;17.17;40.06;98378.22;10412826;28;20086;-56
2022/10/21 11:54:26;;;;;;;10.00;7.88;;;;;;;17.35;40.00;98369.13;10412182;28;20488;-55
2022/10/21 11:59:24;;;;;;;13.40;8.63;;;;;;;17.46;39.97;98369.81;10412936;28;20068;-56
2022/10/21 12:05:01;;;;;;;10.43;7.85;;;;;;;17.64;39.37;98355.47;10415046;28;20040;-56
2022/10/21 12:10:32;;;;;;;10.40;7.60;;;;;;;17.77;39.24;98346.47;10415400;28;20059;-55
2022/10/21 12:15:42;;;;;;;11.25;8.02;;;;;;;17.92;39.30;98326.06;10408767;28;20067;-56
2022/10/21 12:20:44;;;;;;;11.73;8.50;;;;;;;18.00;39.55;98339.03;10414061;28;20071;-55
2022/10/21 12:26:08;;;;;;;11.48;9.05;;;;;;;17.91;39.26;98329.56;10411536;28;20078;-56
2022/10/21 12:31:28;;;;;;;10.75;7.85;;;;;;;17.90;39.09;98327.88;10405127;28;20103;-55
2022/10/21 12:36:38;;;;;;;11.45;7.88;;;;;;;17.91;38.76;98324.31;10403389;28;20770;-56
2022/10/21 12:41:43;;;;;;;11.23;8.00;;;;;;;17.93;38.30;98323.41;10412417;28;20162;-56
2022/10/21 12:46:55;;;;;;;11.13;7.85;;;;;;;17.98;38.08;98315.41;10415935;28;20074;-56
2022/10/21 12:52:03;;;;;;;9.98;7.57;;;;;;;18.07;37.77;98315.22;10418684;28;20464;-56
2022/10/21 12:57:06;;;;;;;10.55;7.40;;;;;;;18.24;37.49;98309.56;10419372;28;20503;-56
2022/10/21 13:02:05;;;;;;;11.30;7.95;;;;;;;18.22;37.50;98305.25;10418736;28;20078;-56
2022/10/21 13:07:05;;;;;;;9.60;7.30;;;;;;;18.45;37.47;98302.94;10421583;28;20025;-55
2022/10/21 13:12:06;;;;;;;9.65;7.63;;;;;;;18.53;36.98;98308.91;10421462;28;20090;-55
2022/10/21 13:17:27;;;;;;;10.32;8.10;;;;;;;18.40;38.35;98307.47;10421028;28;20060;-55
2022/10/21 13:22:38;;;;;;;12.45;7.80;;;;;;;18.27;38.77;98301.66;10420458;28;20064;-56
2022/10/21 13:27:40;;;;;;;12.85;8.10;;;;;;;18.22;39.59;98302.63;10419130;28;20056;-55
2022/10/21 13:32:40;;;;;;;11.57;7.70;;;;;;;18.08;39.69;98301.19;10417476;28;20068;-56
2022/10/21 13:37:41;;;;;;;10.60;8.23;;;;;;;18.13;39.79;98303.72;10419235;28;20075;-55
2022/10/21 13:42:46;;;;;;;12.07;8.75;;;;;;;18.30;39.99;98305.97;10419331;28;20083;-56
2022/10/21 13:47:57;;;;;;;12.80;10.05;;;;;;;17.89;40.04;98323.50;10418409;28;20087;-55
2022/10/21 13:52:57;;;;;;;20.35;12.30;;;;;;;17.82;40.44;98325.38;10418490;28;20701;-56
2022/10/21 13:57:56;;;;;;;10.35;8.23;;;;;;;17.86;40.30;98323.56;10419164;28;20056;-56
2022/10/21 14:03:01;;;;;;;11.23;8.05;;;;;;;17.73;40.53;98336.94;10418117;28;20067;-57
2022/10/21 14:08:01;;;;;;;10.75;8.02;;;;;;;17.59;41.00;98338.97;10417501;28;20063;-56
2022/10/21 14:13:00;;;;;;;12.77;7.82;;;;;;;17.48;41.69;98340.94;10417486;28;20466;-57
2022/10/21 14:17:59;;;;;;;11.68;8.10;;;;;;;17.20;41.56;98330.94;10417464;28;20064;-56
2022/10/21 14:23:04;;;;;;;11.73;7.97;;;;;;;17.13;42.27;98350.31;10417067;28;20082;-56
2022/10/21 14:28:04;;;;;;;16.58;8.77;;;;;;;16.97;42.33;98349.72;10417541;28;20071;-56
2022/10/21 14:33:05;;;;;;;13.35;9.20;;;;;;;16.76;42.87;98353.53;10374761;28;20064;-56
2022/10/21 14:38:24;;;;;;;11.20;8.70;;;;;;;16.57;43.14;98354.72;10372890;28;20075;-56
2022/10/21 14:43:32;;;;;;;10.35;8.20;;;;;;;16.32;43.88;98348.97;10405869;28;20146;-55
2022/10/21 14:48:35;;;;;;;13.90;8.38;;;;;;;16.22;44.32;98348.25;10411868;28;20136;-55
2022/10/21 14:53:42;;;;;;;14.50;8.93;;;;;;;16.21;44.24;98363.09;10410949;28;20064;-56
2022/10/21 14:58:41;;;;;;;32.78;18.90;;;;;;;16.03;44.50;98364.19;10410915;28;20072;-56
2022/10/21 15:03:49;;;;;;;19.17;11.45;;;;;;;15.88;45.08;98361.81;10410741;28;20063;-55
2022/10/21 15:09:00;;;;;;;21.73;14.43;;;;;;;15.68;45.52;98377.69;10411057;28;20067;-55
2022/10/21 15:14:04;;;;;;;16.00;12.65;;;;;;;15.46;45.51;98366.63;10410978;28;20107;-56
2022/10/21 15:19:19;;;;;;;32.85;24.73;;;;;;;15.36;46.01;98364.97;10410770;28;20547;-55
2022/10/21 15:24:27;;;;;;;23.60;16.17;;;;;;;15.18;46.53;98374.72;10410568;28;20107;-55
2022/10/21 15:29:36;;;;;;;25.95;19.80;;;;;;;15.06;47.33;98376.56;10401987;28;20104;-56
2022/10/21 15:34:35;;;;;;;27.08;16.15;;;;;;;14.81;47.78;98377.66;10407614;28;20067;-55
2022/10/21 15:39:34;;;;;;;22.27;15.80;;;;;;;14.62;48.13;98381.28;10410375;28;20040;-55
2022/10/21 15:44:33;;;;;;;27.88;20.17;;;;;;;14.34;49.43;98391.88;10399549;28;20051;-56
2022/10/21 15:49:36;;;;;;;29.15;21.08;;;;;;;14.07;50.33;98395.50;10406871;28;20143;-56
2022/10/21 15:54:35;;;;;;;27.48;19.92;;;;;;;13.80;51.01;98395.63;10408457;28;20051;-56
2022/10/21 15:59:34;;;;;;;22.90;15.93;;;;;;;13.50;52.61;98416.53;10370847;28;20032;-56
2022/10/21 16:04:33;;;;;;;26.23;14.60;;;;;;;13.26;53.16;98414.00;10368298;28;20080;-56
2022/10/21 16:09:32;;;;;;;21.70;13.95;;;;;;;13.06;53.42;98425.28;10368089;28;20041;-56
2022/10/21 16:14:31;;;;;;;23.60;16.48;;;;;;;12.86;53.88;98427.00;10368086;28;20555;-56
2022/10/21 16:19:30;;;;;;;28.67;19.40;;;;;;;12.63;55.00;98432.22;10375250;28;20035;-56
2022/10/21 16:24:29;;;;;;;28.65;19.20;;;;;;;12.43;55.64;98437.34;10414141;28;20033;-55
2022/10/21 16:29:28;;;;;;;26.25;19.70;;;;;;;12.24;56.54;98441.63;10408222;28;20440;-56
2022/10/21 16:34:27;;;;;;;29.67;20.30;;;;;;;12.07;56.56;98439.81;10375304;28;20040;-56
2022/10/21 16:39:26;;;;;;;27.63;19.48;;;;;;;11.90;57.52;98454.50;10374775;28;20035;-56
2022/10/21 16:44:25;;;;;;;32.28;20.50;;;;;;;11.74;58.06;98458.75;10374434;28;20790;-56
2022/10/21 16:49:26;;;;;;;30.92;21.52;;;;;;;11.57;59.24;98458.66;10379828;28;20055;-56
2022/10/21 16:54:25;;;;;;;34.67;21.88;;;;;;;11.42;59.99;98451.59;10414404;28;20060;-56
2022/10/21 16:59:24;;;;;;;31.15;22.58;;;;;;;11.27;60.61;98464.50;10413819;28;20034;-55
2022/10/21 17:04:23;;;;;;;34.63;26.05;;;;;;;11.10;60.60;98471.28;10412902;28;20033;-56
2022/10/21 17:09:22;;;;;;;;;;;;;;;10.92;62.10;98470.25;10414821;28;20070;-55
2022/10/21 17:14:21;;;;;;;46.75;32.00;;;;;;;10.71;62.74;98463.09;10405019;28;19920;-56
2022/10/21 17:19:20;;;;;;;53.08;35.47;;;;;;;10.54;63.96;98465.53;10411893;28;20036;-56
2022/10/21 17:24:19;;;;;;;43.20;29.50;;;;;;;10.39;64.97;98465.38;10413218;28;20108;-55
2022/10/21 17:29:18;;;;;;;49.90;29.05;;;;;;;10.15;66.82;98456.44;10405047;28;20025;-55
2022/10/21 17:34:26;;;;;;;44.65;33.53;;;;;;;9.92;68.09;98457.88;10371017;28;20036;-56
2022/10/21 17:39:25;;;;;;;48.92;32.17;;;;;;;9.82;68.84;98469.00;10371438;28;20154;-56
2022/10/21 17:44:24;;;;;;;49.90;34.45;;;;;;;9.71;69.42;98464.53;10371267;28;20069;-56
2022/10/21 17:49:25;;;;;;;55.08;37.85;;;;;;;9.60;70.43;98465.22;10383537;28;20055;-55
2022/10/21 17:54:24;;;;;;;45.58;31.55;;;;;;;9.59;69.85;98461.75;10405829;28;20124;-55
2022/10/21 17:59:23;;;;;;;41.95;29.20;;;;;;;9.48;71.82;98468.50;10411517;28;20040;-56
2022/10/21 18:04:22;;;;;;;;;;;;;;;9.42;71.39;98468.41;10411691;28;20483;-56
2022/10/21 18:09:21;;;;;;;48.92;33.55;;;;;;;9.33;71.73;98464.84;10411282;28;20483;-55
2022/10/21 18:14:20;;;;;;;65.15;42.85;;;;;;;9.27;72.30;98456.06;10411017;28;20028;-56
2022/10/21 18:19:19;;;;;;;106.65;60.67;;;;;;;9.14;73.53;98449.84;10411497;28;20071;-55
2022/10/21 18:24:18;;;;;;;106.03;71.82;;;;;;;9.02;73.74;98458.28;10404190;28;20040;-55
2022/10/21 18:29:17;;;;;;;97.82;68.20;;;;;;;8.99;73.51;98452.16;10403171;28;20488;-55
2022/10/21 18:34:16;;;;;;;94.45;59.42;;;;;;;8.83;75.14;98457.09;10383942;28;20104;-55
2022/10/21 18:39:15;;;;;;;;;;;;;;;8.78;75.34;98465.63;10378192;28;20487;-56
2022/10/21 18:44:14;;;;;;;109.10;71.97;;;;;;;8.71;75.38;98456.88;10368734;28;20382;-56
2022/10/21 18:49:14;;;;;;;172.43;119.75;;;;;;;8.65;75.92;98472.31;10368850;28;20051;-55
2022/10/21 18:54:14;;;;;;;107.05;73.30;;;;;;;8.63;75.91;98468.81;10385765;28;20518;-55
2022/10/21 18:59:13;;;;;;;98.72;64.72;;;;;;;8.56;75.81;98467.81;10408916;28;20115;-55
2022/10/21 19:04:12;;;;;;;107.13;70.57;;;;;;;8.45;76.59;98467.59;10409345;28;20082;-55
2022/10/21 19:09:14;;;;;;;67.75;47.05;;;;;;;8.33;77.19;98477.72;10408322;28;20036;-56
2022/10/21 19:14:14;;;;;;;36.75;26.17;;;;;;;8.14;78.25;98470.47;10409070;28;20499;-55
2022/10/21 19:19:14;;;;;;;57.88;37.97;;;;;;;8.02;78.57;98451.28;10408504;28;20068;-55
2022/10/21 19:24:13;;;;;;;82.80;57.15;;;;;;;7.94;78.70;98459.69;10401330;28;20128;-56
2022/10/21 19:29:16;;;;;;;86.07;57.42;;;;;;;7.87;78.70;98456.09;10402276;28;20024;-56
2022/10/21 19:34:18;;;;;;;80.63;57.75;;;;;;;7.76;79.12;98460.19;10406370;28;20060;-56
2022/10/21 19:39:18;;;;;;;87.43;57.80;;;;;;;7.62;80.14;98471.09;10401659;28;20474;-56
2022/10/21 19:44:17;;;;;;;102.60;62.42;;;;;;;7.43;80.53;98474.13;10400085;28;20108;-55
2022/10/21 19:49:16;;;;;;;63.20;43.13;;;;;;;7.36;80.80;98461.88;10367592;28;20060;-55
2022/10/21 19:54:15;;;;;;;71.38;44.25;;;;;;;7.18;81.80;98450.25;10393874;28;20540;-55
2022/10/21 19:59:14;;;;;;;63.80;45.42;;;;;;;7.11;81.91;98469.00;10399843;28;20107;-55
2022/10/21 20:04:13;;;;;;;51.35;32.15;;;;;;;6.89;83.33;98469.31;10400708;28;20043;-55
2022/10/21 20:09:12;;;;;;;47.35;32.60;;;;;;;6.70;83.19;98478.28;10399359;28;20086;-56
2022/10/21 20:14:12;;;;;;;;;;;;;;;6.47;83.92;98457.06;10368726;28;20180;-55
2022/10/21 20:19:11;;;;;;;32.65;23.70;;;;;;;6.45;83.63;98461.31;10358567;28;20032;-55
2022/10/21 20:24:13;;;;;;;;;;;;;;;6.38;84.29;98448.25;10359026;28;20116;-55
2022/10/21 20:29:14;;;;;;;34.95;23.38;;;;;;;6.28;84.36;98446.28;10362986;28;20023;-55
2022/10/21 20:34:13;;;;;;;35.75;24.45;;;;;;;6.10;85.10;98456.94;10358717;28;20576;-56
2022/10/21 20:39:12;;;;;;;;;;;;;;;6.06;85.87;98451.66;10395940;28;20111;-55
2022/10/21 20:44:17;;;;;;;38.70;25.58;;;;;;;6.00;85.65;98442.06;10401046;28;19991;-55
2022/10/21 20:49:16;;;;;;;42.95;29.40;;;;;;;6.04;85.75;98438.72;10399338;28;20566;-55
2022/10/21 20:54:19;;;;;;;43.92;30.60;;;;;;;6.01;85.84;98433.50;10364003;28;20499;-55
2022/10/21 20:59:18;;;;;;;50.45;33.03;;;;;;;5.98;86.12;98426.56;10398634;28;20495;-55
2022/10/21 21:04:19;;;;;;;49.55;32.45;;;;;;;6.01;86.20;98412.03;10402689;28;20507;-55
2022/10/21 21:09:20;;;;;;;45.65;28.98;;;;;;;5.97;86.90;98411.91;10407619;28;20056;-55
2022/10/21 21:14:19;;;;;;;42.00;29.38;;;;;;;6.08;86.16;98398.47;10407436;28;20515;-55
2022/10/21 21:19:19;;;;;;;44.35;31.38;;;;;;;6.08;86.78;98407.06;10407353;28;20071;-56
2022/10/21 21:24:18;;;;;;;47.17;32.10;;;;;;;6.02;86.85;98413.75;10408130;28;20060;-55
2022/10/21 21:29:17;;;;;;;62.80;38.53;;;;;;;5.95;87.05;98408.44;10398398;28;20107;-56
2022/10/21 21:34:16;;;;;;;52.00;33.97;;;;;;;5.93;86.90;98401.47;10366473;28;20040;-55
2022/10/21 21:39:15;;;;;;;54.75;36.42;;;;;;;5.96;86.69;98402.44;10365273;28;20098;-55
2022/10/21 21:44:14;;;;;;;51.47;33.33;;;;;;;5.96;86.86;98397.31;10365831;28;20037;-55
2022/10/21 21:49:13;;;;;;;53.75;37.80;;;;;;;5.86;87.53;98397.00;10365424;28;20087;-55
2022/10/21 21:54:12;;;;;;;54.85;35.30;;;;;;;5.68;87.49;98403.38;10365200;28;20037;-55
2022/10/21 21:59:11;;;;;;;54.78;37.50;;;;;;;5.69;87.07;98405.09;10365077;28;20082;-55
2022/10/21 22:04:10;;;;;;;52.97;36.88;;;;;;;5.70;87.73;98414.59;10371644;28;20087;-55
2022/10/21 22:09:10;;;;;;;51.40;35.20;;;;;;;5.74;88.07;98412.97;10373856;28;20491;-55
2022/10/21 22:14:09;;;;;;;54.28;34.03;;;;;;;5.76;87.92;98424.19;10372953;28;20060;-55
2022/10/21 22:19:08;;;;;;;49.20;34.53;;;;;;;5.71;88.92;98405.16;10372923;28;20041;-55
2022/10/21 22:24:07;;;;;;;53.40;36.15;;;;;;;5.78;88.87;98412.22;10372023;28;20496;-55
2022/10/21 22:29:06;;;;;;;52.55;36.75;;;;;;;5.74;89.31;98411.28;10371997;28;20108;-55
2022/10/21 22:34:05;;;;;;;55.75;37.60;;;;;;;5.83;89.11;98399.50;10374736;28;20029;-55
2022/10/21 22:39:04;;;;;;;55.22;38.75;;;;;;;5.77;89.81;98392.47;10374853;28;20060;-55
2022/10/21 22:44:03;;;;;;;61.13;38.13;;;;;;;5.80;89.89;98384.81;10372597;28;20150;-55
2022/10/21 22:49:04;;;;;;;42.78;31.15;;;;;;;5.68;90.76;98381.91;10374398;28;20084;-55
2022/10/21 22:54:03;;;;;;;41.55;31.02;;;;;;;5.67;90.72;98388.78;10374232;28;20075;-55
2022/10/21 22:59:02;;;;;;;37.42;26.33;;;;;;;5.64;90.82;98380.06;10374228;28;20068;-55
2022/10/21 23:04:02;;;;;;;40.30;26.88;;;;;;;5.76;90.20;98381.28;10373609;28;20075;-55
2022/10/21 23:09:03;;;;;;;33.45;24.70;;;;;;;5.80;90.79;98371.94;10373938;28;20064;-55
2022/10/21 23:14:02;;;;;;;34.17;23.02;;;;;;;5.97;90.53;98369.81;10374161;28;20072;-56